地図

経路データ

SID SEASON NUMBER BASIN SUBBASIN NAME ISO_TIME NATURE LAT LON WMO_WIND WMO_PRES WMO_AGENCY TRACK_TYPE DIST2LAND LANDFALL IFLAG USA_AGENCY USA_ATCF_ID USA_LAT USA_LON USA_RECORD USA_STATUS USA_WIND USA_PRES USA_SSHS USA_R34_NE USA_R34_SE USA_R34_SW USA_R34_NW USA_R50_NE USA_R50_SE USA_R50_SW USA_R50_NW USA_R64_NE USA_R64_SE USA_R64_SW USA_R64_NW USA_POCI USA_ROCI USA_RMW USA_EYE TOKYO_LAT TOKYO_LON TOKYO_GRADE TOKYO_WIND TOKYO_PRES TOKYO_R50_DIR TOKYO_R50_LONG TOKYO_R50_SHORT TOKYO_R30_DIR TOKYO_R30_LONG TOKYO_R30_SHORT TOKYO_LAND CMA_LAT CMA_LON CMA_CAT CMA_WIND CMA_PRES HKO_LAT HKO_LON HKO_CAT HKO_WIND HKO_PRES NEWDELHI_LAT NEWDELHI_LON NEWDELHI_GRADE NEWDELHI_WIND NEWDELHI_PRES NEWDELHI_CI NEWDELHI_DP NEWDELHI_POCI REUNION_LAT REUNION_LON REUNION_TYPE REUNION_WIND REUNION_PRES REUNION_TNUM REUNION_CI REUNION_RMW REUNION_R34_NE REUNION_R34_SE REUNION_R34_SW REUNION_R34_NW REUNION_R50_NE REUNION_R50_SE REUNION_R50_SW REUNION_R50_NW REUNION_R64_NE REUNION_R64_SE REUNION_R64_SW REUNION_R64_NW BOM_LAT BOM_LON BOM_TYPE BOM_WIND BOM_PRES BOM_TNUM BOM_CI BOM_RMW BOM_R34_NE BOM_R34_SE BOM_R34_SW BOM_R34_NW BOM_R50_NE BOM_R50_SE BOM_R50_SW BOM_R50_NW BOM_R64_NE BOM_R64_SE BOM_R64_SW BOM_R64_NW BOM_ROCI BOM_POCI BOM_EYE BOM_POS_METHOD BOM_PRES_METHOD NADI_LAT NADI_LON NADI_CAT NADI_WIND NADI_PRES WELLINGTON_LAT WELLINGTON_LON WELLINGTON_WIND WELLINGTON_PRES DS824_LAT DS824_LON DS824_STAGE DS824_WIND DS824_PRES TD9636_LAT TD9636_LON TD9636_STAGE TD9636_WIND TD9636_PRES TD9635_LAT TD9635_LON TD9635_WIND TD9635_PRES TD9635_ROCI NEUMANN_LAT NEUMANN_LON NEUMANN_CLASS NEUMANN_WIND NEUMANN_PRES MLC_LAT MLC_LON MLC_CLASS MLC_WIND MLC_PRES USA_GUST BOM_GUST BOM_GUST_PER REUNION_GUST REUNION_GUST_PER USA_SEAHGT USA_SEARAD_NE USA_SEARAD_SE USA_SEARAD_SW USA_SEARAD_NW STORM_SPEED STORM_DIR
1899345S10068 1900 52 SI MM NOT_NAMED 1899-12-10 18:00:00 NR -9.80000 67.6000 main 1567 1546 __________O___ -1 -9.80000 67.6000 7 7 261
1899345S10068 1900 52 SI MM NOT_NAMED 1899-12-10 21:00:00 NR -9.84870 67.2719 main 1546 1516 __________P___ -1 -9.84870 67.2719 7 7 261
1899345S10068 1900 52 SI MM NOT_NAMED 1899-12-11 00:00:00 NR -9.89780 66.9451 main 1509 1488 __________P___ -1 -9.89780 66.9451 7 7 261
1899345S10068 1900 52 SI MM NOT_NAMED 1899-12-11 03:00:00 NR -9.94799 66.6207 main 1488 1459 __________P___ -1 -9.94799 66.6207 7 6 261
1899345S10068 1900 52 SI MM NOT_NAMED 1899-12-11 06:00:00 NR -10.0000 66.3000 main 1459 1430 __________O___ -1 -10.0000 66.3000 7 6 260
1899345S10068 1900 52 SI MM NOT_NAMED 1899-12-11 09:00:00 NR -10.0539 65.9831 main 1430 1410 __________P___ -1 -10.0539 65.9831 7 6 260
1899345S10068 1900 52 SI MM NOT_NAMED 1899-12-11 12:00:00 NR -10.1073 65.6650 main 1410 1381 __________P___ -1 -10.1073 65.6650 7 6 261
1899345S10068 1900 52 SI MM NOT_NAMED 1899-12-11 15:00:00 NR -10.1570 65.3394 main 1375 1356 __________P___ -1 -10.1570 65.3394 7 7 262
1899345S10068 1900 52 SI MM NOT_NAMED 1899-12-11 18:00:00 NR -10.2000 65.0000 main 1356 1338 __________O___ -1 -10.2000 65.0000 7 7 264
1899345S10068 1900 52 SI MM NOT_NAMED 1899-12-11 21:00:00 NR -10.2281 64.6312 main 1332 1314 __________P___ -1 -10.2281 64.6312 7 7 266
1899345S10068 1900 52 SI MM NOT_NAMED 1899-12-12 00:00:00 NR -10.2500 64.2499 main 1299 1282 __________P___ -1 -10.2500 64.2499 7 8 267
1899345S10068 1900 52 SI MM NOT_NAMED 1899-12-12 03:00:00 NR -10.2719 63.8687 main 1282 1260 __________P___ -1 -10.2719 63.8687 7 7 266
1899345S10068 1900 52 SI MM NOT_NAMED 1899-12-12 06:00:00 NR -10.3000 63.5000 main 1260 1245 __________O___ -1 -10.3000 63.5000 7 7 264
1899345S10068 1900 52 SI MM NOT_NAMED 1899-12-12 09:00:00 NR -10.3467 63.1647 main 1245 1220 __________P___ -1 -10.3467 63.1647 7 7 261
1899345S10068 1900 52 SI MM NOT_NAMED 1899-12-12 12:00:00 NR -10.3997 62.8425 main 1215 1191 __________P___ -1 -10.3997 62.8425 7 6 260
1899345S10068 1900 52 SI MM NOT_NAMED 1899-12-12 15:00:00 NR -10.4529 62.5241 main 1191 1177 __________P___ -1 -10.4529 62.5241 7 6 261
1899345S10068 1900 52 SI MM NOT_NAMED 1899-12-12 18:00:00 NR -10.5000 62.2000 main 1177 1164 __________O___ -1 -10.5000 62.2000 7 7 263
1899345S10068 1900 52 SI MM NOT_NAMED 1899-12-12 21:00:00 NR -10.5280 61.8612 main 1164 1149 __________P___ -1 -10.5280 61.8612 7 7 266
1899345S10068 1900 52 SI MM NOT_NAMED 1899-12-13 00:00:00 NR -10.5498 61.5149 main 1149 1127 __________P___ -1 -10.5498 61.5149 7 7 266
1899345S10068 1900 52 SI MM NOT_NAMED 1899-12-13 03:00:00 NR -10.5717 61.1611 main 1127 1113 __________P___ -1 -10.5717 61.1611 7 7 266
1899345S10068 1900 52 SI MM NOT_NAMED 1899-12-13 06:00:00 NR -10.6000 60.8000 main 1113 1104 __________O___ -1 -10.6000 60.8000 7 7 264
1899345S10068 1900 52 SI MM NOT_NAMED 1899-12-13 09:00:00 NR -10.6427 60.4403 main 1101 1083 __________P___ -1 -10.6427 60.4403 7 7 263
1899345S10068 1900 52 SI MM NOT_NAMED 1899-12-13 12:00:00 NR -10.6923 60.0725 main 1083 1073 __________P___ -1 -10.6923 60.0725 7 7 262
1899345S10068 1900 52 SI MM NOT_NAMED 1899-12-13 15:00:00 NR -10.7457 59.6934 main 1073 1052 __________P___ -1 -10.7457 59.6934 7 8 262
1899345S10068 1900 52 SI MM NOT_NAMED 1899-12-13 18:00:00 NR -10.8000 59.3000 main 1052 1010 __________O___ -1 -10.8000 59.3000 7 8 262
1899345S10068 1900 52 SI MM NOT_NAMED 1899-12-13 21:00:00 NR -10.8495 58.9258 main 1010 975 __________P___ -1 -10.8495 58.9258 7 8 262
1899345S10068 1900 52 SI MM NOT_NAMED 1899-12-14 00:00:00 NR -10.8992 58.5323 main 965 923 __________P___ -1 -10.8992 58.5323 7 8 263
1899345S10068 1900 52 SI MM NOT_NAMED 1899-12-14 03:00:00 NR -10.9493 58.0976 main 923 867 __________P___ -1 -10.9493 58.0976 7 9 264
1899345S10068 1900 52 SI MM NOT_NAMED 1899-12-14 06:00:00 NR -11.0000 57.6000 main 867 801 __________O___ -1 -11.0000 57.6000 7 11 265
1899345S10068 1900 52 SI MM NOT_NAMED 1899-12-14 09:00:00 NR -11.0549 56.9661 main 801 728 __________P___ -1 -11.0549 56.9661 7 13 265
1899345S10068 1900 52 SI MM NOT_NAMED 1899-12-14 12:00:00 NR -11.1087 56.2777 main 728 652 __________P___ -1 -11.1087 56.2777 7 13 266
1899345S10068 1900 52 SI MM NOT_NAMED 1899-12-14 15:00:00 NR -11.1580 55.6004 main 652 590 __________P___ -1 -11.1580 55.6004 7 13 266
1899345S10068 1900 52 SI MM NOT_NAMED 1899-12-14 18:00:00 NR -11.2000 55.0000 main 590 549 __________O___ -1 -11.2000 55.0000 7 10 266
1899345S10068 1900 52 SI MM NOT_NAMED 1899-12-14 21:00:00 NR -11.2188 54.6082 main 549 519 __________P___ -1 -11.2188 54.6082 7 7 267
1899345S10068 1900 52 SI MM NOT_NAMED 1899-12-15 00:00:00 NR -11.2333 54.2921 main 519 484 __________P___ -1 -11.2333 54.2921 7 6 267
1899345S10068 1900 52 SI MM NOT_NAMED 1899-12-15 03:00:00 NR -11.2563 53.9800 main 484 445 __________P___ -1 -11.2563 53.9800 7 7 264
1899345S10068 1900 52 SI MM NOT_NAMED 1899-12-15 06:00:00 NR -11.3000 53.6000 main 445 391 __________O___ -1 -11.3000 53.6000 7 9 262
1899345S10068 1900 52 SI MM NOT_NAMED 1899-12-15 09:00:00 NR -11.3828 53.0542 main 391 328 __________P___ -1 -11.3828 53.0542 7 12 261
1899345S10068 1900 52 SI MM NOT_NAMED 1899-12-15 12:00:00 NR -11.4854 52.4327 main 319 259 __________P___ -1 -11.4854 52.4327 7 13 260
1899345S10068 1900 52 SI MM NOT_NAMED 1899-12-15 15:00:00 NR -11.5952 51.7698 main 259 193 __________P___ -1 -11.5952 51.7698 7 13 261
1899345S10068 1900 52 SI MM NOT_NAMED 1899-12-15 18:00:00 NR -11.7000 51.1000 main 193 127 __________O___ -1 -11.7000 51.1000 7 13 262
1899345S10068 1900 52 SI MM NOT_NAMED 1899-12-15 21:00:00 NR -11.7862 50.4506 main 127 54 __________P___ -1 -11.7862 50.4506 7 13 263
1899345S10068 1900 52 SI MM NOT_NAMED 1899-12-16 00:00:00 NR -11.8650 49.8050 main 54 22 __________P___ -1 -11.8650 49.8050 7 13 263
1899345S10068 1900 52 SI MM NOT_NAMED 1899-12-16 03:00:00 NR -11.9363 49.1819 main 22 22 __________P___ -1 -11.9363 49.1819 7 12 263
1899345S10068 1900 52 SI MM NOT_NAMED 1899-12-16 06:00:00 NR -12.0000 48.6000 main 54 54 __________O___ -1 -12.0000 48.6000 7 11 264
1899345S10068 1900 52 SI MM NOT_NAMED 1899-12-16 09:00:00 NR -12.0485 48.0776 main 94 94 __________P___ -1 -12.0485 48.0776 7 10 265
1899345S10068 1900 52 SI MM NOT_NAMED 1899-12-16 12:00:00 NR -12.0917 47.5972 main 137 137 __________P___ -1 -12.0917 47.5972 7 9 264
1899345S10068 1900 52 SI MM NOT_NAMED 1899-12-16 15:00:00 NR -12.1392 47.1432 main 190 190 __________P___ -1 -12.1392 47.1432 7 9 263
1899345S10068 1900 52 SI MM NOT_NAMED 1899-12-16 18:00:00 NR -12.2000 46.7000 main 210 210 __________O___ -1 -12.2000 46.7000 7 9 261
1899345S10068 1900 52 SI MM NOT_NAMED 1899-12-16 21:00:00 NR -12.2773 46.2387 main 241 241 __________P___ -1 -12.2773 46.2387 7 9 259
1899345S10068 1900 52 SI MM NOT_NAMED 1899-12-17 00:00:00 NR -12.3697 45.7849 main 270 270 __________P___ -1 -12.3697 45.7849 7 9 257
1899345S10068 1900 52 SI MM NOT_NAMED 1899-12-17 03:00:00 NR -12.4773 45.3386 main 312 312 __________P___ -1 -12.4773 45.3386 7 9 255
1899345S10068 1900 52 SI MM NOT_NAMED 1899-12-17 06:00:00 NR -12.6000 44.9000 main 347 347 __________O___ -1 -12.6000 44.9000 7 9 254
1899345S10068 1900 52 SI MM NOT_NAMED 1899-12-17 09:00:00 NR -12.7151 44.4595 main 375 368 __________P___ -1 -12.7151 44.4595 7 9 254
1899345S10068 1900 52 SI MM NOT_NAMED 1899-12-17 12:00:00 NR -12.8473 44.0271 main 368 326 __________P___ -1 -12.8473 44.0271 7 9 251
1899345S10068 1900 52 SI MM NOT_NAMED 1899-12-17 15:00:00 NR -13.0058 43.6062 main 326 282 __________P___ -1 -13.0058 43.6062 7 9 246
1899345S10068 1900 52 SI MM NOT_NAMED 1899-12-17 18:00:00 NR -13.2000 43.2000 main 282 238 __________O___ -1 -13.2000 43.2000 7 9 243
1899345S10068 1900 52 SI MM NOT_NAMED 1899-12-17 21:00:00 NR -13.4228 42.7823 main 238 194 __________P___ -1 -13.4228 42.7823 7 9 239
1899345S10068 1900 52 SI MM NOT_NAMED 1899-12-18 00:00:00 NR -13.6825 42.3826 main 194 140 __________P___ -1 -13.6825 42.3826 7 9 233
1899345S10068 1900 52 SI MM NOT_NAMED 1899-12-18 03:00:00 NR -13.9760 42.0166 main 140 99 __________P___ -1 -13.9760 42.0166 7 9 227
1899345S10068 1900 52 SI MM NOT_NAMED 1899-12-18 06:00:00 NR -14.3000 41.7000 main 99 64 __________O___ -1 -14.3000 41.7000 7 9 221
1899345S10068 1900 52 SI MM NOT_NAMED 1899-12-18 09:00:00 NR -14.6338 41.4292 main 64 42 __________P___ -1 -14.6338 41.4292 7 8 214
1899345S10068 1900 52 SI MM NOT_NAMED 1899-12-18 12:00:00 NR -14.9972 41.2098 main 42 34 __________P___ -1 -14.9972 41.2098 7 8 207
1899345S10068 1900 52 SI MM NOT_NAMED 1899-12-18 15:00:00 NR -15.3870 41.0355 main 42 42 __________P___ -1 -15.3870 41.0355 7 9 200
1899345S10068 1900 52 SI MM NOT_NAMED 1899-12-18 18:00:00 NR -15.8000 40.9000 main 54 48 __________O___ -1 -15.8000 40.9000 7 9 198
1899345S10068 1900 52 SI MM NOT_NAMED 1899-12-18 21:00:00 NR -16.2243 40.7528 main 69 61 __________P___ -1 -16.2243 40.7528 7 9 196
1899345S10068 1900 52 SI MM NOT_NAMED 1899-12-19 00:00:00 NR -16.6699 40.6455 main 85 85 __________P___ -1 -16.6699 40.6455 7 9 190
1899345S10068 1900 52 SI MM NOT_NAMED 1899-12-19 03:00:00 NR -17.1305 40.5905 main 108 108 __________P___ -1 -17.1305 40.5905 7 9 183
1899345S10068 1900 52 SI MM NOT_NAMED 1899-12-19 06:00:00 NR -17.6000 40.6000 main 149 149 __________O___ -1 -17.6000 40.6000 7 10 175
1899345S10068 1900 52 SI MM NOT_NAMED 1899-12-19 09:00:00 NR -18.0921 40.6686 main 202 202 __________P___ -1 -18.0921 40.6686 7 10 169
1899345S10068 1900 52 SI MM NOT_NAMED 1899-12-19 12:00:00 NR -18.5874 40.8019 main 253 253 __________P___ -1 -18.5874 40.8019 7 10 163
1899345S10068 1900 52 SI MM NOT_NAMED 1899-12-19 15:00:00 NR -19.0640 40.9844 main 309 309 __________P___ -1 -19.0640 40.9844 7 10 158
1899345S10068 1900 52 SI MM NOT_NAMED 1899-12-19 18:00:00 NR -19.5000 41.2000 main 317 282 __________O___ -1 -19.5000 41.2000 7 9 154
1899345S10068 1900 52 SI MM NOT_NAMED 1899-12-19 21:00:00 NR -19.8638 41.3975 main 275 238 __________P___ -1 -19.8638 41.3975 7 8 150
1899345S10068 1900 52 SI MM NOT_NAMED 1899-12-20 00:00:00 NR -20.1871 41.6261 main 238 194 __________P___ -1 -20.1871 41.6261 7 8 144
1899345S10068 1900 52 SI MM NOT_NAMED 1899-12-20 03:00:00 NR -20.4918 41.8915 main 194 150 __________P___ -1 -20.4918 41.8915 7 8 139
1899345S10068 1900 52 SI MM NOT_NAMED 1899-12-20 06:00:00 NR -20.8000 42.2000 main 150 108 __________O___ -1 -20.8000 42.2000 7 9 137
1899345S10068 1900 52 SI MM NOT_NAMED 1899-12-20 09:00:00 NR -21.1551 42.5566 main 95 61 __________P___ -1 -21.1551 42.5566 7 10 135
1899345S10068 1900 52 SI MM NOT_NAMED 1899-12-20 12:00:00 NR -21.5152 42.9547 main 51 0 __________P___ -1 -21.5152 42.9547 7 10 133
1899345S10068 1900 52 SI MM NOT_NAMED 1899-12-20 15:00:00 NR -21.8676 43.3755 main 0 0 __________P___ -1 -21.8676 43.3755 7 10 131
1899345S10068 1900 52 SI MM NOT_NAMED 1899-12-20 18:00:00 NR -22.2000 43.8000 main 0 0 __________O___ -1 -22.2000 43.8000 7 10 129
1899345S10068 1900 52 SI MM NOT_NAMED 1899-12-20 21:00:00 NR -22.4879 44.1890 main 0 0 __________P___ -1 -22.4879 44.1890 7 9 128
1899345S10068 1900 52 SI MM NOT_NAMED 1899-12-21 00:00:00 NR -22.7567 44.5791 main 0 0 __________P___ -1 -22.7567 44.5791 7 9 126
1899345S10068 1900 52 SI MM NOT_NAMED 1899-12-21 03:00:00 NR -23.0222 44.9797 main 0 0 __________P___ -1 -23.0222 44.9797 7 9 126
1899345S10068 1900 52 SI MM NOT_NAMED 1899-12-21 06:00:00 NR -23.3000 45.4000 main 0 0 __________O___ -1 -23.3000 45.4000 7 10 126
1899345S10068 1900 52 SI MM NOT_NAMED 1899-12-21 09:00:00 NR -23.6146 45.8536 main 0 0 __________P___ -1 -23.6146 45.8536 7 11 127
1899345S10068 1900 52 SI MM NOT_NAMED 1899-12-21 12:00:00 NR -23.9423 46.3277 main 0 0 __________P___ -1 -23.9423 46.3277 7 11 127
1899345S10068 1900 52 SI MM NOT_NAMED 1899-12-21 15:00:00 NR -24.2739 46.8130 main 0 0 __________P___ -1 -24.2739 46.8130 7 11 127
1899345S10068 1900 52 SI MM NOT_NAMED 1899-12-21 18:00:00 NR -24.6000 47.3000 main 10 10 __________O___ -1 -24.6000 47.3000 7 11 126
1899345S10068 1900 52 SI MM NOT_NAMED 1899-12-21 21:00:00 NR -24.9066 47.7718 main 64 64 __________P___ -1 -24.9066 47.7718 7 11 125
1899345S10068 1900 52 SI MM NOT_NAMED 1899-12-22 00:00:00 NR -25.2067 48.2437 main 112 112 __________P___ -1 -25.2067 48.2437 7 10 125
1899345S10068 1900 52 SI MM NOT_NAMED 1899-12-22 03:00:00 NR -25.5035 48.7187 main 170 170 __________P___ -1 -25.5035 48.7187 7 10 124
1899345S10068 1900 52 SI MM NOT_NAMED 1899-12-22 06:00:00 NR -25.8000 49.2000 main 228 228 __________O___ -1 -25.8000 49.2000 7 11 124
1899345S10068 1900 52 SI MM NOT_NAMED 1899-12-22 09:00:00 NR -26.1079 49.7012 main 288 288 __________P___ -1 -26.1079 49.7012 7 11 124
1899345S10068 1900 52 SI MM NOT_NAMED 1899-12-22 12:00:00 NR -26.4147 50.2078 main 347 347 __________P___ -1 -26.4147 50.2078 7 11 124
1899345S10068 1900 52 SI MM NOT_NAMED 1899-12-22 15:00:00 NR -26.7142 50.7105 main 406 406 __________P___ -1 -26.7142 50.7105 7 11 123
1899345S10068 1900 52 SI MM NOT_NAMED 1899-12-22 18:00:00 NR -27.0000 51.2000 main 466 466 __________O___ -1 -27.0000 51.2000 7 10 123
1899345S10068 1900 52 SI MM NOT_NAMED 1899-12-22 21:00:00 NR -27.2427 51.6382 main 511 511 __________P___ -1 -27.2427 51.6382 7 9 122
1899345S10068 1900 52 SI MM NOT_NAMED 1899-12-23 00:00:00 NR -27.4755 52.0659 main 571 571 __________P___ -1 -27.4755 52.0659 7 9 122
1899345S10068 1900 52 SI MM NOT_NAMED 1899-12-23 03:00:00 NR -27.7206 52.5104 main 616 616 __________P___ -1 -27.7206 52.5104 7 10 122
1899345S10068 1900 52 SI MM NOT_NAMED 1899-12-23 06:00:00 NR -28.0000 53.0000 main 675 675 __________O___ -1 -28.0000 53.0000 7 11 124
1899345S10068 1900 52 SI MM NOT_NAMED 1899-12-23 09:00:00 NR -28.3464 53.5464 main 734 734 __________P___ -1 -28.3464 53.5464 7 12 126
1899345S10068 1900 52 SI MM NOT_NAMED 1899-12-23 12:00:00 NR -28.7261 54.1454 main 807 807 __________P___ -1 -28.7261 54.1454 7 13 125
1899345S10068 1900 52 SI MM NOT_NAMED 1899-12-23 15:00:00 NR -29.1178 54.7968 main 864 864 __________P___ -1 -29.1178 54.7968 7 14 123
1899345S10068 1900 52 SI MM NOT_NAMED 1899-12-23 18:00:00 NR -29.5000 55.5000 main 904 904 __________O___ -1 -29.5000 55.5000 7 15 120
1899345S10068 1900 52 SI MM NOT_NAMED 1899-12-23 21:00:00 NR -29.8559 56.2522 main 952 952 __________P___ -1 -29.8559 56.2522 7 15 117
1899345S10068 1900 52 SI MM NOT_NAMED 1899-12-24 00:00:00 NR -30.1870 57.0439 main 992 992 __________P___ -1 -30.1870 57.0439 7 15 115
1899345S10068 1900 52 SI MM NOT_NAMED 1899-12-24 03:00:00 NR -30.4996 57.8637 main 1042 1042 __________P___ -1 -30.4996 57.8637 7 16 113
1899345S10068 1900 52 SI MM NOT_NAMED 1899-12-24 06:00:00 NR -30.8000 58.7000 main 1094 __________O___ -1 -30.8000 58.7000 7 16 113

IBTrACS Databaseについて

本データベースは、米国NOAAが公開する1842年以降の世界の熱帯低気圧のベストトラックデータアーカイブInternational Best Track Archive for Climate Stewardship (IBTrACS)を、ウェブで閲覧しやすい形式に変換したものです。

最終更新日:2021-10-21